createdAt,value
2019-03-30T00:00:59.205Z,99669.75
2019-03-30T00:03:33.616Z,99671.78
2019-03-30T00:06:06.683Z,99668.23
2019-03-30T00:08:39.558Z,99667.67
2019-03-30T00:11:12.979Z,99669.20
2019-03-30T00:13:46.676Z,99580.73
2019-03-30T00:16:18.607Z,99660.80
2019-03-30T00:18:52.641Z,99658.33
2019-03-30T00:21:24.666Z,99657.53
2019-03-30T00:23:56.767Z,99663.86
2019-03-30T00:26:33.403Z,99658.94
2019-03-30T00:29:05.261Z,99657.97
2019-03-30T00:31:38.149Z,99656.31
2019-03-30T00:34:09.987Z,99657.19
2019-03-30T00:36:44.010Z,99651.44
2019-03-30T00:39:15.829Z,99653.39
2019-03-30T00:41:48.918Z,99653.88
2019-03-30T00:44:22.003Z,99653.88
2019-03-30T00:46:54.971Z,99651.63
2019-03-30T00:49:27.228Z,99654.42
2019-03-30T00:52:00.951Z,99652.77
2019-03-30T00:54:33.959Z,99659.06
2019-03-30T00:57:07.943Z,99658.25
2019-03-30T00:59:40.106Z,99661.27
2019-03-30T01:02:13.069Z,99656.50
2019-03-30T01:04:45.986Z,99662.65
2019-03-30T01:07:20.301Z,99663.67
2019-03-30T01:09:54.946Z,99661.05
2019-03-30T01:12:27.294Z,99656.31
2019-03-30T01:15:01.018Z,99654.06
2019-03-30T01:17:34.111Z,99651.63
2019-03-30T01:20:08.244Z,99649.48
2019-03-30T01:22:42.949Z,99648.84
2019-03-30T01:25:16.086Z,99642.59
2019-03-30T01:27:48.937Z,99642.26
2019-03-30T01:30:23.328Z,99641.92
2019-03-30T01:32:58.096Z,99644.55
2019-03-30T01:35:31.270Z,99639.62
2019-03-30T01:38:04.057Z,99638.49
2019-03-30T01:40:37.404Z,99634.73
2019-03-30T01:43:11.997Z,99632.44
2019-03-30T01:45:46.225Z,99634.73
2019-03-30T01:48:19.188Z,99638.05
2019-03-30T01:50:53.175Z,99636.73
2019-03-30T01:53:25.054Z,99630.48
2019-03-30T01:55:58.127Z,99639.70
2019-03-30T01:58:30.188Z,99633.13
2019-03-30T02:01:05.662Z,99635.80
2019-03-30T02:03:37.465Z,99630.07
2019-03-30T02:06:12.991Z,99633.53
2019-03-30T02:08:47.329Z,99632.55
2019-03-30T02:11:19.147Z,99638.80
2019-03-30T02:13:52.283Z,99639.14
2019-03-30T02:16:24.287Z,99640.64
2019-03-30T02:18:58.274Z,99638.16
2019-03-30T02:21:31.264Z,99647.55
2019-03-30T02:24:04.344Z,99638.83
2019-03-30T02:26:37.365Z,99639.84
2019-03-30T02:29:10.655Z,99630.78
2019-03-30T02:31:45.372Z,99635.40
2019-03-30T02:34:19.394Z,99633.10
2019-03-30T02:36:51.281Z,99629.64
2019-03-30T02:39:25.458Z,99632.61
2019-03-30T02:41:58.467Z,99627.68
2019-03-30T02:44:30.320Z,99626.70
2019-03-30T02:47:03.767Z,99625.72
2019-03-30T02:49:36.457Z,99626.08
2019-03-30T02:52:10.958Z,99631.98
2019-03-30T02:54:45.428Z,99632.32
2019-03-30T02:57:18.504Z,99629.05
2019-03-30T02:59:51.426Z,99630.55
2019-03-30T03:02:24.383Z,99628.25
2019-03-30T03:04:57.589Z,99626.09
2019-03-30T03:07:30.692Z,99621.52
2019-03-30T03:10:05.992Z,99623.17
2019-03-30T03:12:39.408Z,99619.86
2019-03-30T03:15:13.561Z,99616.25
2019-03-30T03:17:45.584Z,99584.41
2019-03-30T03:20:18.580Z,99619.06
2019-03-30T03:22:51.485Z,99615.11
2019-03-30T03:25:24.547Z,99617.58
2019-03-30T03:27:59.140Z,99615.29
2019-03-30T03:30:33.965Z,99620.20
2019-03-30T03:33:07.075Z,99615.61
2019-03-30T03:35:39.898Z,99623.84
2019-03-30T03:38:12.667Z,99610.02
2019-03-30T03:40:47.237Z,99608.70
2019-03-30T03:43:23.207Z,99608.70
2019-03-30T03:45:57.662Z,99601.50
2019-03-30T03:48:30.784Z,99602.16
2019-03-30T03:51:05.414Z,99601.16
2019-03-30T03:53:37.881Z,99605.77
2019-03-30T03:56:11.780Z,99600.50
2019-03-30T03:58:47.717Z,99598.38
2019-03-30T04:01:24.908Z,99603.14
2019-03-30T04:03:59.981Z,99614.97
2019-03-30T04:06:34.297Z,99614.48
2019-03-30T04:09:08.140Z,99619.89
2019-03-30T04:11:43.906Z,99611.53
2019-03-30T04:14:19.533Z,99614.16
2019-03-30T04:16:53.311Z,99614.48
2019-03-30T04:19:25.836Z,99613.32
2019-03-30T04:21:57.650Z,99612.33
2019-03-30T04:24:30.903Z,99607.43
2019-03-30T04:27:03.892Z,99608.75
2019-03-30T04:29:36.956Z,99603.47
2019-03-30T04:32:08.772Z,99603.47
2019-03-30T04:34:40.921Z,99614.48
2019-03-30T04:37:13.982Z,99613.17
2019-03-30T04:39:46.732Z,99616.94
2019-03-30T04:42:18.876Z,99617.28
2019-03-30T04:44:51.823Z,99621.86
2019-03-30T04:47:23.670Z,99617.27
2019-03-30T04:49:58.035Z,99623.83
2019-03-30T04:52:31.003Z,99628.60
2019-03-30T04:55:04.393Z,99622.19
2019-03-30T04:57:37.034Z,99626.14
2019-03-30T05:00:11.256Z,99625.33
2019-03-30T05:02:43.152Z,99628.10
2019-03-30T05:05:18.151Z,99632.71
2019-03-30T05:07:52.158Z,99636.02
2019-03-30T05:10:26.401Z,99634.20
2019-03-30T05:13:01.141Z,99637.34
2019-03-30T05:15:36.281Z,99636.34
2019-03-30T05:18:10.373Z,99639.62
2019-03-30T05:20:43.668Z,99643.58
2019-03-30T05:23:16.231Z,99641.91
2019-03-30T05:25:49.227Z,99641.59
2019-03-30T05:28:22.198Z,99642.58
2019-03-30T05:30:56.742Z,99639.62
2019-03-30T05:33:31.269Z,99642.06
2019-03-30T05:36:03.252Z,99639.75
2019-03-30T05:38:37.179Z,99641.58
2019-03-30T05:41:10.276Z,99637.94
2019-03-30T05:43:43.263Z,99639.44
2019-03-30T05:46:16.202Z,99637.78
2019-03-30T05:48:49.215Z,99634.98
2019-03-30T05:51:22.218Z,99637.75
2019-03-30T05:53:55.263Z,99646.42
2019-03-30T05:56:27.849Z,99639.84
2019-03-30T05:59:01.231Z,99638.95
2019-03-30T06:01:34.145Z,99644.00
2019-03-30T06:04:07.302Z,99632.44
2019-03-30T06:06:47.280Z,99637.14
2019-03-30T06:09:23.151Z,99634.30
2019-03-30T06:11:55.192Z,99636.98
2019-03-30T06:14:27.774Z,99638.08
2019-03-30T06:17:02.397Z,99636.09
2019-03-30T06:19:35.378Z,99636.09
2019-03-30T06:22:09.804Z,99624.29
2019-03-30T06:24:45.723Z,99624.99
2019-03-30T06:27:21.618Z,99623.72
2019-03-30T06:30:14.216Z,99619.51
2019-03-30T06:32:46.883Z,99624.48
2019-03-30T06:35:19.397Z,99628.90
2019-03-30T06:37:53.553Z,99625.63
2019-03-30T06:40:25.464Z,99623.98
2019-03-30T06:42:59.383Z,99624.51
2019-03-30T06:45:31.417Z,99620.57
2019-03-30T06:48:04.378Z,99623.89
2019-03-30T06:50:39.431Z,99618.28
2019-03-30T06:53:14.007Z,99612.45
2019-03-30T06:55:49.274Z,99609.48
2019-03-30T06:58:23.497Z,99605.40
2019-03-30T07:00:57.282Z,99613.73
2019-03-30T07:03:31.523Z,99615.36
2019-03-30T07:06:07.019Z,99614.97
2019-03-30T07:08:50.629Z,99610.15
2019-03-30T07:11:25.835Z,99609.12
2019-03-30T07:14:00.979Z,99605.28
2019-03-30T07:16:36.650Z,99609.55
2019-03-30T07:19:08.730Z,99609.48
2019-03-30T07:21:40.681Z,99600.22
2019-03-30T07:24:13.878Z,99601.80
2019-03-30T07:26:48.683Z,99598.59
2019-03-30T07:29:24.881Z,99599.05
2019-03-30T07:31:58.650Z,99590.69
2019-03-30T07:34:33.531Z,99589.08
2019-03-30T07:37:07.669Z,99591.73
2019-03-30T07:39:40.684Z,99593.77
2019-03-30T07:42:13.812Z,99586.91
2019-03-30T07:44:46.659Z,99588.97
2019-03-30T07:47:20.816Z,99584.55
2019-03-30T07:49:54.651Z,99584.94
2019-03-30T07:52:27.788Z,99588.74
2019-03-30T07:55:00.960Z,99582.63
2019-03-30T07:57:38.487Z,99575.72
2019-03-30T08:00:11.573Z,99576.04
2019-03-30T08:02:46.041Z,99575.95
2019-03-30T08:05:22.310Z,99575.39
2019-03-30T08:07:56.926Z,99567.41
2019-03-30T08:10:31.441Z,99567.10
2019-03-30T08:13:06.821Z,99564.14
2019-03-30T08:15:41.535Z,99561.27
2019-03-30T08:18:17.105Z,99563.89
2019-03-30T08:20:50.482Z,99562.90
2019-03-30T08:23:39.797Z,99560.77
2019-03-30T08:26:04.077Z,99565.39
2019-03-30T08:28:37.968Z,99560.33
2019-03-30T08:31:13.569Z,99560.72
2019-03-30T08:33:45.966Z,99561.67
2019-03-30T08:36:20.199Z,99553.30
2019-03-30T08:38:57.641Z,99557.20
2019-03-30T08:41:31.169Z,99558.37
2019-03-30T08:44:06.623Z,99551.85
2019-03-30T08:46:43.456Z,99556.72
2019-03-30T08:49:18.358Z,99552.16
2019-03-30T08:51:53.871Z,99547.47
2019-03-30T08:54:28.818Z,99552.18
2019-03-30T08:57:03.170Z,99543.87
2019-03-30T08:59:37.119Z,99539.30
2019-03-30T09:02:10.314Z,99534.66
2019-03-30T09:04:45.603Z,99522.56
2019-03-30T09:07:22.802Z,99532.43
2019-03-30T09:09:56.343Z,99522.40
2019-03-30T09:12:33.253Z,99522.40
2019-03-30T09:15:10.395Z,99529.38
2019-03-30T09:17:44.752Z,99520.65
2019-03-30T09:20:19.742Z,99521.48
2019-03-30T09:22:52.250Z,99520.19
2019-03-30T09:25:29.163Z,99518.19
2019-03-30T09:28:04.845Z,99519.77
2019-03-30T09:30:38.174Z,99512.72
2019-03-30T09:33:12.836Z,99505.44
2019-03-30T09:35:46.259Z,99501.59
2019-03-30T09:38:20.754Z,99503.41
2019-03-30T09:40:56.961Z,99497.06
2019-03-30T09:43:30.618Z,99496.13
2019-03-30T09:46:04.509Z,99494.88
2019-03-30T09:48:40.882Z,99490.53
2019-03-30T09:51:17.021Z,99483.99
2019-03-30T09:53:51.369Z,99485.33
2019-03-30T09:56:25.292Z,99479.04
2019-03-30T09:59:00.428Z,99475.14
2019-03-30T10:01:35.352Z,99477.90
2019-03-30T10:04:07.789Z,99474.38
2019-03-30T10:06:41.474Z,99472.61
2019-03-30T10:09:16.151Z,99474.98
2019-03-30T10:11:50.920Z,99465.70
2019-03-30T10:14:28.817Z,99468.27
2019-03-30T10:17:05.197Z,99465.96
2019-03-30T10:19:40.515Z,99460.63
2019-03-30T10:22:19.423Z,99456.41
2019-03-30T10:24:53.206Z,99453.23
2019-03-30T10:27:25.617Z,99452.77
2019-03-30T10:30:12.828Z,99449.08
2019-03-30T10:32:46.445Z,99448.76
2019-03-30T10:35:19.576Z,99441.27
2019-03-30T10:37:52.461Z,99432.00
2019-03-30T10:40:27.721Z,99424.35
2019-03-30T10:43:01.541Z,99415.45
2019-03-30T10:45:35.752Z,99408.84
2019-03-30T10:48:09.895Z,99406.70
2019-03-30T10:50:47.469Z,99406.62
2019-03-30T10:53:19.585Z,99408.14
2019-03-30T10:55:52.635Z,99396.33
2019-03-30T10:58:24.818Z,99395.42
2019-03-30T11:01:00.743Z,99380.22
2019-03-30T11:03:34.548Z,99382.73
2019-03-30T11:06:10.324Z,99382.25
2019-03-30T11:08:47.923Z,99379.57
2019-03-30T11:11:26.208Z,99373.63
2019-03-30T11:14:02.572Z,99369.31
2019-03-30T11:16:34.601Z,99365.77
2019-03-30T11:19:09.184Z,99351.66
2019-03-30T11:21:44.878Z,99354.69
2019-03-30T11:24:20.493Z,99364.16
2019-03-30T11:26:53.927Z,99354.39
2019-03-30T11:29:28.239Z,99350.38
2019-03-30T11:32:02.312Z,99342.73
2019-03-30T11:34:34.785Z,99332.38
2019-03-30T11:37:07.787Z,99340.23
2019-03-30T11:39:40.360Z,99336.13
2019-03-30T11:42:13.898Z,99333.69
2019-03-30T11:44:46.817Z,99327.80
2019-03-30T11:47:21.340Z,99328.09
2019-03-30T11:49:55.345Z,99318.59
2019-03-30T11:52:28.030Z,99316.85
2019-03-30T11:55:02.997Z,99296.97
2019-03-30T11:57:36.696Z,99296.00
2019-03-30T12:00:11.177Z,99296.12
2019-03-30T12:02:43.913Z,99287.74
